sensor_id;sensor_type;location;lat;lon;timestamp;P1;durP1;ratioP1;P2;durP2;ratioP2
24681;SDS011;12802;53.390;-2.328;2023-04-06T00:01:51;18.02;;;16.15;;
24681;SDS011;12802;53.390;-2.328;2023-04-06T00:04:16;19.27;;;16.75;;
24681;SDS011;12802;53.390;-2.328;2023-04-06T00:06:42;18.80;;;16.30;;
24681;SDS011;12802;53.390;-2.328;2023-04-06T00:09:08;16.88;;;15.00;;
24681;SDS011;12802;53.390;-2.328;2023-04-06T00:11:34;19.65;;;15.93;;
24681;SDS011;12802;53.390;-2.328;2023-04-06T00:13:59;18.02;;;15.68;;
24681;SDS011;12802;53.390;-2.328;2023-04-06T00:16:25;19.42;;;16.35;;
24681;SDS011;12802;53.390;-2.328;2023-04-06T00:18:51;17.42;;;15.73;;
24681;SDS011;12802;53.390;-2.328;2023-04-06T00:21:17;24.27;;;18.05;;
24681;SDS011;12802;53.390;-2.328;2023-04-06T00:23:43;22.10;;;16.25;;
24681;SDS011;12802;53.390;-2.328;2023-04-06T00:26:09;16.73;;;14.50;;
24681;SDS011;12802;53.390;-2.328;2023-04-06T00:28:37;19.08;;;16.13;;
24681;SDS011;12802;53.390;-2.328;2023-04-06T00:31:03;21.55;;;16.58;;
24681;SDS011;12802;53.390;-2.328;2023-04-06T00:33:28;19.23;;;15.90;;
24681;SDS011;12802;53.390;-2.328;2023-04-06T00:35:54;17.77;;;15.15;;
24681;SDS011;12802;53.390;-2.328;2023-04-06T00:38:21;16.42;;;14.73;;
24681;SDS011;12802;53.390;-2.328;2023-04-06T00:40:47;15.52;;;13.90;;
24681;SDS011;12802;53.390;-2.328;2023-04-06T00:43:13;15.88;;;14.20;;
24681;SDS011;12802;53.390;-2.328;2023-04-06T00:45:39;16.70;;;14.38;;
24681;SDS011;12802;53.390;-2.328;2023-04-06T00:48:06;16.35;;;13.63;;
24681;SDS011;12802;53.390;-2.328;2023-04-06T00:50:32;15.85;;;14.35;;
24681;SDS011;12802;53.390;-2.328;2023-04-06T00:52:58;19.20;;;14.85;;
24681;SDS011;12802;53.390;-2.328;2023-04-06T00:55:26;16.02;;;13.38;;
24681;SDS011;12802;53.390;-2.328;2023-04-06T00:57:53;19.50;;;13.63;;
24681;SDS011;12802;53.390;-2.328;2023-04-06T01:00:20;18.35;;;15.65;;
24681;SDS011;12802;53.390;-2.328;2023-04-06T01:02:50;15.38;;;13.68;;
24681;SDS011;12802;53.390;-2.328;2023-04-06T01:05:19;16.23;;;14.53;;
24681;SDS011;12802;53.390;-2.328;2023-04-06T01:07:52;15.60;;;14.10;;
24681;SDS011;12802;53.390;-2.328;2023-04-06T01:10:22;16.38;;;14.73;;
24681;SDS011;12802;53.390;-2.328;2023-04-06T01:12:49;15.75;;;14.07;;
24681;SDS011;12802;53.390;-2.328;2023-04-06T01:15:24;16.50;;;14.73;;
24681;SDS011;12802;53.390;-2.328;2023-04-06T01:17:52;17.27;;;14.88;;
24681;SDS011;12802;53.390;-2.328;2023-04-06T01:20:18;18.00;;;13.95;;
24681;SDS011;12802;53.390;-2.328;2023-04-06T01:22:43;16.90;;;15.10;;
24681;SDS011;12802;53.390;-2.328;2023-04-06T01:25:10;18.83;;;14.60;;
24681;SDS011;12802;53.390;-2.328;2023-04-06T01:28:02;16.15;;;13.95;;
24681;SDS011;12802;53.390;-2.328;2023-04-06T01:31:01;14.82;;;13.27;;
24681;SDS011;12802;53.390;-2.328;2023-04-06T01:33:42;17.80;;;14.38;;
24681;SDS011;12802;53.390;-2.328;2023-04-06T01:36:11;18.17;;;14.77;;
24681;SDS011;12802;53.390;-2.328;2023-04-06T01:38:38;16.95;;;14.88;;
24681;SDS011;12802;53.390;-2.328;2023-04-06T01:41:04;14.85;;;13.45;;
24681;SDS011;12802;53.390;-2.328;2023-04-06T01:43:39;19.90;;;14.57;;
24681;SDS011;12802;53.390;-2.328;2023-04-06T01:46:08;14.73;;;13.20;;
24681;SDS011;12802;53.390;-2.328;2023-04-06T01:48:37;15.63;;;13.93;;
24681;SDS011;12802;53.390;-2.328;2023-04-06T01:51:20;13.43;;;12.10;;
24681;SDS011;12802;53.390;-2.328;2023-04-06T01:53:53;14.65;;;12.48;;
24681;SDS011;12802;53.390;-2.328;2023-04-06T01:56:23;17.52;;;13.32;;
24681;SDS011;12802;53.390;-2.328;2023-04-06T01:59:01;14.50;;;13.07;;
24681;SDS011;12802;53.390;-2.328;2023-04-06T02:01:34;14.23;;;12.70;;
24681;SDS011;12802;53.390;-2.328;2023-04-06T02:04:00;15.98;;;14.13;;
24681;SDS011;12802;53.390;-2.328;2023-04-06T02:06:26;18.17;;;14.57;;
24681;SDS011;12802;53.390;-2.328;2023-04-06T02:08:52;17.52;;;14.00;;
24681;SDS011;12802;53.390;-2.328;2023-04-06T02:11:18;22.45;;;15.35;;
24681;SDS011;12802;53.390;-2.328;2023-04-06T02:16:15;18.85;;;14.18;;
24681;SDS011;12802;53.390;-2.328;2023-04-06T02:18:42;18.80;;;14.32;;
24681;SDS011;12802;53.390;-2.328;2023-04-06T02:21:08;17.20;;;13.85;;
24681;SDS011;12802;53.390;-2.328;2023-04-06T02:23:34;15.30;;;13.35;;
24681;SDS011;12802;53.390;-2.328;2023-04-06T02:26:00;15.70;;;13.93;;
24681;SDS011;12802;53.390;-2.328;2023-04-06T02:28:26;14.23;;;12.52;;
24681;SDS011;12802;53.390;-2.328;2023-04-06T02:30:52;16.33;;;13.02;;
24681;SDS011;12802;53.390;-2.328;2023-04-06T02:33:19;16.23;;;13.77;;
24681;SDS011;12802;53.390;-2.328;2023-04-06T02:35:46;17.02;;;12.77;;
24681;SDS011;12802;53.390;-2.328;2023-04-06T02:38:12;14.90;;;12.60;;
24681;SDS011;12802;53.390;-2.328;2023-04-06T02:40:37;14.20;;;12.68;;
24681;SDS011;12802;53.390;-2.328;2023-04-06T02:43:14;14.55;;;11.90;;
24681;SDS011;12802;53.390;-2.328;2023-04-06T02:45:42;12.93;;;11.30;;
24681;SDS011;12802;53.390;-2.328;2023-04-06T02:48:09;15.60;;;12.25;;
24681;SDS011;12802;53.390;-2.328;2023-04-06T02:50:35;16.77;;;11.13;;
24681;SDS011;12802;53.390;-2.328;2023-04-06T02:53:04;12.55;;;10.30;;
24681;SDS011;12802;53.390;-2.328;2023-04-06T02:55:31;11.02;;;9.85;;
24681;SDS011;12802;53.390;-2.328;2023-04-06T02:57:57;11.18;;;9.55;;
24681;SDS011;12802;53.390;-2.328;2023-04-06T03:00:27;10.27;;;8.63;;
24681;SDS011;12802;53.390;-2.328;2023-04-06T03:02:53;10.20;;;8.15;;
24681;SDS011;12802;53.390;-2.328;2023-04-06T03:05:19;10.77;;;9.50;;
24681;SDS011;12802;53.390;-2.328;2023-04-06T03:07:46;11.18;;;9.60;;
24681;SDS011;12802;53.390;-2.328;2023-04-06T03:10:19;14.50;;;10.27;;
24681;SDS011;12802;53.390;-2.328;2023-04-06T03:12:46;10.57;;;9.48;;
24681;SDS011;12802;53.390;-2.328;2023-04-06T03:15:16;11.13;;;10.02;;
24681;SDS011;12802;53.390;-2.328;2023-04-06T03:17:47;10.35;;;9.27;;
24681;SDS011;12802;53.390;-2.328;2023-04-06T03:20:31;14.75;;;10.23;;
24681;SDS011;12802;53.390;-2.328;2023-04-06T03:22:57;15.07;;;11.07;;
24681;SDS011;12802;53.390;-2.328;2023-04-06T03:25:27;11.85;;;9.80;;
24681;SDS011;12802;53.390;-2.328;2023-04-06T03:27:58;12.52;;;9.50;;
24681;SDS011;12802;53.390;-2.328;2023-04-06T03:30:25;18.13;;;11.23;;
24681;SDS011;12802;53.390;-2.328;2023-04-06T03:32:51;14.50;;;10.93;;
24681;SDS011;12802;53.390;-2.328;2023-04-06T03:35:19;14.90;;;11.20;;
24681;SDS011;12802;53.390;-2.328;2023-04-06T03:37:44;13.27;;;10.82;;
24681;SDS011;12802;53.390;-2.328;2023-04-06T03:40:10;17.52;;;11.40;;
24681;SDS011;12802;53.390;-2.328;2023-04-06T03:42:36;18.77;;;12.13;;
24681;SDS011;12802;53.390;-2.328;2023-04-06T03:45:08;15.73;;;12.93;;
24681;SDS011;12802;53.390;-2.328;2023-04-06T03:47:38;16.45;;;12.45;;
24681;SDS011;12802;53.390;-2.328;2023-04-06T03:50:05;17.90;;;12.38;;
24681;SDS011;12802;53.390;-2.328;2023-04-06T03:52:34;21.63;;;13.00;;
24681;SDS011;12802;53.390;-2.328;2023-04-06T03:55:00;20.13;;;13.48;;
24681;SDS011;12802;53.390;-2.328;2023-04-06T03:57:26;22.83;;;14.68;;
24681;SDS011;12802;53.390;-2.328;2023-04-06T03:59:52;25.67;;;14.60;;
24681;SDS011;12802;53.390;-2.328;2023-04-06T04:02:17;25.05;;;15.27;;
24681;SDS011;12802;53.390;-2.328;2023-04-06T04:04:43;22.75;;;14.45;;
24681;SDS011;12802;53.390;-2.328;2023-04-06T04:07:09;25.50;;;16.25;;
24681;SDS011;12802;53.390;-2.328;2023-04-06T04:09:35;23.33;;;15.38;;
24681;SDS011;12802;53.390;-2.328;2023-04-06T04:12:01;19.88;;;14.52;;
24681;SDS011;12802;53.390;-2.328;2023-04-06T04:14:28;19.83;;;14.63;;
24681;SDS011;12802;53.390;-2.328;2023-04-06T04:16:54;19.85;;;14.48;;
24681;SDS011;12802;53.390;-2.328;2023-04-06T04:19:20;20.88;;;14.75;;
24681;SDS011;12802;53.390;-2.328;2023-04-06T04:21:46;22.90;;;14.60;;
24681;SDS011;12802;53.390;-2.328;2023-04-06T04:24:16;19.33;;;14.18;;
24681;SDS011;12802;53.390;-2.328;2023-04-06T04:26:42;19.27;;;14.60;;
24681;SDS011;12802;53.390;-2.328;2023-04-06T04:29:08;20.50;;;13.57;;
24681;SDS011;12802;53.390;-2.328;2023-04-06T04:31:35;20.92;;;14.90;;
24681;SDS011;12802;53.390;-2.328;2023-04-06T04:34:04;22.70;;;14.38;;
24681;SDS011;12802;53.390;-2.328;2023-04-06T04:36:32;18.52;;;14.65;;
24681;SDS011;12802;53.390;-2.328;2023-04-06T04:39:02;23.23;;;16.52;;
24681;SDS011;12802;53.390;-2.328;2023-04-06T04:41:31;22.35;;;16.65;;
24681;SDS011;12802;53.390;-2.328;2023-04-06T04:43:58;26.23;;;16.52;;
24681;SDS011;12802;53.390;-2.328;2023-04-06T04:46:25;27.33;;;19.33;;
24681;SDS011;12802;53.390;-2.328;2023-04-06T04:48:51;26.52;;;19.35;;
24681;SDS011;12802;53.390;-2.328;2023-04-06T04:51:17;29.00;;;21.45;;
24681;SDS011;12802;53.390;-2.328;2023-04-06T04:54:02;33.40;;;20.00;;
24681;SDS011;12802;53.390;-2.328;2023-04-06T04:56:30;31.67;;;20.67;;
24681;SDS011;12802;53.390;-2.328;2023-04-06T04:59:04;34.70;;;22.77;;
24681;SDS011;12802;53.390;-2.328;2023-04-06T05:01:33;29.17;;;22.23;;
24681;SDS011;12802;53.390;-2.328;2023-04-06T05:04:00;32.47;;;21.38;;
24681;SDS011;12802;53.390;-2.328;2023-04-06T05:06:25;30.70;;;21.63;;
24681;SDS011;12802;53.390;-2.328;2023-04-06T05:08:52;29.52;;;24.05;;
24681;SDS011;12802;53.390;-2.328;2023-04-06T05:11:20;35.33;;;23.02;;
24681;SDS011;12802;53.390;-2.328;2023-04-06T05:13:53;28.35;;;21.98;;
24681;SDS011;12802;53.390;-2.328;2023-04-06T05:16:22;31.88;;;22.20;;
24681;SDS011;12802;53.390;-2.328;2023-04-06T05:18:49;33.53;;;21.33;;
24681;SDS011;12802;53.390;-2.328;2023-04-06T05:21:15;28.73;;;20.02;;
24681;SDS011;12802;53.390;-2.328;2023-04-06T05:24:05;25.33;;;19.30;;
24681;SDS011;12802;53.390;-2.328;2023-04-06T05:26:35;30.02;;;21.65;;
24681;SDS011;12802;53.390;-2.328;2023-04-06T05:29:06;29.38;;;20.17;;
24681;SDS011;12802;53.390;-2.328;2023-04-06T05:31:35;26.60;;;19.38;;
24681;SDS011;12802;53.390;-2.328;2023-04-06T05:34:00;37.67;;;19.73;;
24681;SDS011;12802;53.390;-2.328;2023-04-06T05:36:30;25.27;;;19.70;;
24681;SDS011;12802;53.390;-2.328;2023-04-06T05:39:00;27.38;;;17.77;;
24681;SDS011;12802;53.390;-2.328;2023-04-06T05:41:32;29.83;;;18.70;;
24681;SDS011;12802;53.390;-2.328;2023-04-06T05:43:59;28.20;;;16.30;;
24681;SDS011;12802;53.390;-2.328;2023-04-06T05:46:25;31.95;;;16.55;;
24681;SDS011;12802;53.390;-2.328;2023-04-06T05:48:53;19.10;;;13.80;;
24681;SDS011;12802;53.390;-2.328;2023-04-06T05:51:23;16.67;;;11.45;;
24681;SDS011;12802;53.390;-2.328;2023-04-06T05:53:50;15.57;;;10.18;;
24681;SDS011;12802;53.390;-2.328;2023-04-06T05:56:16;20.85;;;10.82;;
24681;SDS011;12802;53.390;-2.328;2023-04-06T05:58:42;12.23;;;8.35;;
24681;SDS011;12802;53.390;-2.328;2023-04-06T06:01:11;18.42;;;8.80;;
24681;SDS011;12802;53.390;-2.328;2023-04-06T06:03:41;15.27;;;6.82;;
24681;SDS011;12802;53.390;-2.328;2023-04-06T06:06:06;8.15;;;5.63;;
24681;SDS011;12802;53.390;-2.328;2023-04-06T06:08:46;10.00;;;4.43;;
24681;SDS011;12802;53.390;-2.328;2023-04-06T06:11:15;4.60;;;2.70;;
24681;SDS011;12802;53.390;-2.328;2023-04-06T06:13:41;6.00;;;3.10;;
24681;SDS011;12802;53.390;-2.328;2023-04-06T06:16:07;10.20;;;2.95;;
24681;SDS011;12802;53.390;-2.328;2023-04-06T06:18:39;9.88;;;3.10;;
24681;SDS011;12802;53.390;-2.328;2023-04-06T06:21:06;12.15;;;3.95;;
24681;SDS011;12802;53.390;-2.328;2023-04-06T06:23:32;11.75;;;3.97;;
24681;SDS011;12802;53.390;-2.328;2023-04-06T06:25:58;8.32;;;3.58;;
24681;SDS011;12802;53.390;-2.328;2023-04-06T06:28:25;20.30;;;4.32;;
24681;SDS011;12802;53.390;-2.328;2023-04-06T06:30:51;10.90;;;4.68;;
24681;SDS011;12802;53.390;-2.328;2023-04-06T06:33:21;14.50;;;4.90;;
24681;SDS011;12802;53.390;-2.328;2023-04-06T06:35:49;10.68;;;4.43;;
24681;SDS011;12802;53.390;-2.328;2023-04-06T06:38:16;12.73;;;4.80;;
24681;SDS011;12802;53.390;-2.328;2023-04-06T06:40:42;9.05;;;4.38;;
24681;SDS011;12802;53.390;-2.328;2023-04-06T06:43:08;16.45;;;4.70;;
24681;SDS011;12802;53.390;-2.328;2023-04-06T06:45:46;17.52;;;4.63;;
24681;SDS011;12802;53.390;-2.328;2023-04-06T06:48:12;11.68;;;4.50;;
24681;SDS011;12802;53.390;-2.328;2023-04-06T06:50:39;14.32;;;4.45;;
24681;SDS011;12802;53.390;-2.328;2023-04-06T06:53:05;12.80;;;5.15;;
24681;SDS011;12802;53.390;-2.328;2023-04-06T06:55:31;8.63;;;4.60;;
24681;SDS011;12802;53.390;-2.328;2023-04-06T06:57:57;20.60;;;5.22;;
24681;SDS011;12802;53.390;-2.328;2023-04-06T07:00:22;10.13;;;4.03;;
24681;SDS011;12802;53.390;-2.328;2023-04-06T07:02:50;10.13;;;4.53;;
24681;SDS011;12802;53.390;-2.328;2023-04-06T07:05:16;16.65;;;4.75;;
24681;SDS011;12802;53.390;-2.328;2023-04-06T07:07:42;13.55;;;4.65;;
24681;SDS011;12802;53.390;-2.328;2023-04-06T07:10:08;13.32;;;4.18;;
24681;SDS011;12802;53.390;-2.328;2023-04-06T07:12:37;13.90;;;4.50;;
24681;SDS011;12802;53.390;-2.328;2023-04-06T07:15:02;19.83;;;4.28;;
24681;SDS011;12802;53.390;-2.328;2023-04-06T07:17:29;15.73;;;4.47;;
24681;SDS011;12802;53.390;-2.328;2023-04-06T07:19:54;16.15;;;5.03;;
24681;SDS011;12802;53.390;-2.328;2023-04-06T07:22:20;15.95;;;5.45;;
24681;SDS011;12802;53.390;-2.328;2023-04-06T07:24:46;12.20;;;4.38;;
24681;SDS011;12802;53.390;-2.328;2023-04-06T07:27:13;14.25;;;4.80;;
24681;SDS011;12802;53.390;-2.328;2023-04-06T07:29:38;15.07;;;4.93;;
24681;SDS011;12802;53.390;-2.328;2023-04-06T07:32:04;11.68;;;4.75;;
24681;SDS011;12802;53.390;-2.328;2023-04-06T07:34:31;15.52;;;4.43;;
24681;SDS011;12802;53.390;-2.328;2023-04-06T07:36:58;11.18;;;4.35;;
24681;SDS011;12802;53.390;-2.328;2023-04-06T07:39:24;10.32;;;3.67;;
24681;SDS011;12802;53.390;-2.328;2023-04-06T07:41:53;11.70;;;4.07;;
24681;SDS011;12802;53.390;-2.328;2023-04-06T07:44:18;16.63;;;4.38;;
24681;SDS011;12802;53.390;-2.328;2023-04-06T07:46:45;17.25;;;4.65;;
24681;SDS011;12802;53.390;-2.328;2023-04-06T07:49:11;11.48;;;4.18;;
24681;SDS011;12802;53.390;-2.328;2023-04-06T07:51:38;16.13;;;4.70;;
24681;SDS011;12802;53.390;-2.328;2023-04-06T07:54:04;13.10;;;4.40;;
24681;SDS011;12802;53.390;-2.328;2023-04-06T07:56:30;12.77;;;4.45;;
24681;SDS011;12802;53.390;-2.328;2023-04-06T07:58:56;19.73;;;4.43;;
24681;SDS011;12802;53.390;-2.328;2023-04-06T08:01:23;18.83;;;4.05;;
24681;SDS011;12802;53.390;-2.328;2023-04-06T08:03:49;12.30;;;4.40;;
24681;SDS011;12802;53.390;-2.328;2023-04-06T08:06:16;10.88;;;3.63;;
24681;SDS011;12802;53.390;-2.328;2023-04-06T08:08:42;15.02;;;4.60;;
24681;SDS011;12802;53.390;-2.328;2023-04-06T08:11:08;16.95;;;4.57;;
24681;SDS011;12802;53.390;-2.328;2023-04-06T08:13:34;15.85;;;4.72;;
24681;SDS011;12802;53.390;-2.328;2023-04-06T08:16:00;16.98;;;5.25;;
24681;SDS011;12802;53.390;-2.328;2023-04-06T08:18:26;20.73;;;4.82;;
24681;SDS011;12802;53.390;-2.328;2023-04-06T08:20:52;15.30;;;4.55;;
24681;SDS011;12802;53.390;-2.328;2023-04-06T08:23:19;25.00;;;4.78;;
24681;SDS011;12802;53.390;-2.328;2023-04-06T08:25:45;11.88;;;4.90;;
24681;SDS011;12802;53.390;-2.328;2023-04-06T08:28:11;13.73;;;4.10;;
24681;SDS011;12802;53.390;-2.328;2023-04-06T08:30:39;12.82;;;3.63;;
24681;SDS011;12802;53.390;-2.328;2023-04-06T08:33:06;14.67;;;4.97;;
24681;SDS011;12802;53.390;-2.328;2023-04-06T08:35:31;16.20;;;5.13;;
24681;SDS011;12802;53.390;-2.328;2023-04-06T08:37:57;14.95;;;4.88;;
24681;SDS011;12802;53.390;-2.328;2023-04-06T08:40:23;16.75;;;5.28;;
24681;SDS011;12802;53.390;-2.328;2023-04-06T08:42:53;16.45;;;4.55;;
24681;SDS011;12802;53.390;-2.328;2023-04-06T08:45:20;14.27;;;4.22;;
24681;SDS011;12802;53.390;-2.328;2023-04-06T08:47:50;12.27;;;4.18;;
24681;SDS011;12802;53.390;-2.328;2023-04-06T08:50:17;13.20;;;4.57;;
24681;SDS011;12802;53.390;-2.328;2023-04-06T08:52:45;11.48;;;3.97;;
24681;SDS011;12802;53.390;-2.328;2023-04-06T08:55:12;15.10;;;3.50;;
24681;SDS011;12802;53.390;-2.328;2023-04-06T08:57:38;12.80;;;4.15;;
24681;SDS011;12802;53.390;-2.328;2023-04-06T09:00:06;9.07;;;3.58;;
24681;SDS011;12802;53.390;-2.328;2023-04-06T09:02:36;10.95;;;4.18;;
24681;SDS011;12802;53.390;-2.328;2023-04-06T09:05:04;13.38;;;3.70;;
24681;SDS011;12802;53.390;-2.328;2023-04-06T09:07:30;13.38;;;4.10;;
24681;SDS011;12802;53.390;-2.328;2023-04-06T09:09:56;14.07;;;4.20;;
24681;SDS011;12802;53.390;-2.328;2023-04-06T09:14:49;8.63;;;3.47;;
24681;SDS011;12802;53.390;-2.328;2023-04-06T09:17:21;19.92;;;4.28;;
24681;SDS011;12802;53.390;-2.328;2023-04-06T09:19:52;17.00;;;4.05;;
24681;SDS011;12802;53.390;-2.328;2023-04-06T09:22:18;18.08;;;3.65;;
24681;SDS011;12802;53.390;-2.328;2023-04-06T09:24:45;15.27;;;4.38;;
24681;SDS011;12802;53.390;-2.328;2023-04-06T09:27:11;7.95;;;3.28;;
24681;SDS011;12802;53.390;-2.328;2023-04-06T09:29:38;10.05;;;3.25;;
24681;SDS011;12802;53.390;-2.328;2023-04-06T09:32:04;12.15;;;3.58;;
24681;SDS011;12802;53.390;-2.328;2023-04-06T09:34:32;17.48;;;3.08;;
24681;SDS011;12802;53.390;-2.328;2023-04-06T09:36:59;11.27;;;3.60;;
24681;SDS011;12802;53.390;-2.328;2023-04-06T09:39:25;14.80;;;4.18;;
24681;SDS011;12802;53.390;-2.328;2023-04-06T09:41:51;13.32;;;4.28;;
24681;SDS011;12802;53.390;-2.328;2023-04-06T09:44:19;11.45;;;3.90;;
24681;SDS011;12802;53.390;-2.328;2023-04-06T09:46:45;11.52;;;3.65;;
24681;SDS011;12802;53.390;-2.328;2023-04-06T09:49:12;13.93;;;3.58;;
24681;SDS011;12802;53.390;-2.328;2023-04-06T09:51:39;11.15;;;3.65;;
24681;SDS011;12802;53.390;-2.328;2023-04-06T09:54:10;7.65;;;2.95;;
24681;SDS011;12802;53.390;-2.328;2023-04-06T09:56:46;12.75;;;3.70;;
24681;SDS011;12802;53.390;-2.328;2023-04-06T09:59:13;7.07;;;2.55;;
24681;SDS011;12802;53.390;-2.328;2023-04-06T10:01:46;12.75;;;3.90;;
24681;SDS011;12802;53.390;-2.328;2023-04-06T10:06:54;6.75;;;3.30;;
24681;SDS011;12802;53.390;-2.328;2023-04-06T10:09:22;9.23;;;2.90;;
24681;SDS011;12802;53.390;-2.328;2023-04-06T10:11:53;16.70;;;3.50;;
24681;SDS011;12802;53.390;-2.328;2023-04-06T10:14:20;9.50;;;3.20;;
24681;SDS011;12802;53.390;-2.328;2023-04-06T10:16:47;9.10;;;3.10;;
24681;SDS011;12802;53.390;-2.328;2023-04-06T10:19:18;17.05;;;4.00;;
24681;SDS011;12802;53.390;-2.328;2023-04-06T10:21:51;12.73;;;2.90;;
24681;SDS011;12802;53.390;-2.328;2023-04-06T10:24:21;11.07;;;2.95;;
24681;SDS011;12802;53.390;-2.328;2023-04-06T10:27:07;10.73;;;2.72;;
24681;SDS011;12802;53.390;-2.328;2023-04-06T10:29:43;15.52;;;3.13;;
24681;SDS011;12802;53.390;-2.328;2023-04-06T10:32:16;12.00;;;3.42;;
24681;SDS011;12802;53.390;-2.328;2023-04-06T10:34:42;13.27;;;3.50;;
24681;SDS011;12802;53.390;-2.328;2023-04-06T10:37:12;9.07;;;3.45;;
24681;SDS011;12802;53.390;-2.328;2023-04-06T10:39:45;11.70;;;2.85;;
24681;SDS011;12802;53.390;-2.328;2023-04-06T10:42:23;12.50;;;3.50;;
24681;SDS011;12802;53.390;-2.328;2023-04-06T10:44:50;12.30;;;3.17;;
24681;SDS011;12802;53.390;-2.328;2023-04-06T10:47:17;15.65;;;3.53;;
24681;SDS011;12802;53.390;-2.328;2023-04-06T10:49:43;10.43;;;3.20;;
24681;SDS011;12802;53.390;-2.328;2023-04-06T10:52:09;9.25;;;3.35;;
24681;SDS011;12802;53.390;-2.328;2023-04-06T10:54:34;10.63;;;3.10;;
24681;SDS011;12802;53.390;-2.328;2023-04-06T10:57:08;13.50;;;3.95;;
24681;SDS011;12802;53.390;-2.328;2023-04-06T10:59:34;10.48;;;2.85;;
24681;SDS011;12802;53.390;-2.328;2023-04-06T11:01:59;17.05;;;3.58;;
24681;SDS011;12802;53.390;-2.328;2023-04-06T11:04:25;11.60;;;3.47;;
24681;SDS011;12802;53.390;-2.328;2023-04-06T11:06:51;6.85;;;2.58;;
24681;SDS011;12802;53.390;-2.328;2023-04-06T11:09:26;20.17;;;3.40;;
24681;SDS011;12802;53.390;-2.328;2023-04-06T11:11:53;10.65;;;3.40;;
24681;SDS011;12802;53.390;-2.328;2023-04-06T11:14:20;19.00;;;3.65;;
24681;SDS011;12802;53.390;-2.328;2023-04-06T11:16:46;9.88;;;3.03;;
24681;SDS011;12802;53.390;-2.328;2023-04-06T11:19:16;5.20;;;2.22;;
24681;SDS011;12802;53.390;-2.328;2023-04-06T11:21:43;9.50;;;2.85;;
24681;SDS011;12802;53.390;-2.328;2023-04-06T11:26:57;9.68;;;3.30;;
24681;SDS011;12802;53.390;-2.328;2023-04-06T11:29:26;9.88;;;3.45;;
24681;SDS011;12802;53.390;-2.328;2023-04-06T11:32:02;9.30;;;3.07;;
24681;SDS011;12802;53.390;-2.328;2023-04-06T11:34:29;10.85;;;3.08;;
24681;SDS011;12802;53.390;-2.328;2023-04-06T11:37:00;5.75;;;2.53;;
24681;SDS011;12802;53.390;-2.328;2023-04-06T11:39:28;9.23;;;2.92;;
24681;SDS011;12802;53.390;-2.328;2023-04-06T11:42:03;13.50;;;3.42;;
24681;SDS011;12802;53.390;-2.328;2023-04-06T11:44:33;11.55;;;2.63;;
24681;SDS011;12802;53.390;-2.328;2023-04-06T11:47:03;7.13;;;2.10;;
24681;SDS011;12802;53.390;-2.328;2023-04-06T11:49:30;7.75;;;2.30;;
24681;SDS011;12802;53.390;-2.328;2023-04-06T11:51:57;7.90;;;2.28;;
24681;SDS011;12802;53.390;-2.328;2023-04-06T11:54:33;8.55;;;2.85;;
24681;SDS011;12802;53.390;-2.328;2023-04-06T11:57:01;6.60;;;2.45;;
24681;SDS011;12802;53.390;-2.328;2023-04-06T11:59:28;10.07;;;2.83;;
24681;SDS011;12802;53.390;-2.328;2023-04-06T12:01:53;9.23;;;2.70;;
24681;SDS011;12802;53.390;-2.328;2023-04-06T12:04:19;8.57;;;3.13;;
24681;SDS011;12802;53.390;-2.328;2023-04-06T12:06:46;5.70;;;2.60;;
24681;SDS011;12802;53.390;-2.328;2023-04-06T12:09:12;9.82;;;2.85;;
24681;SDS011;12802;53.390;-2.328;2023-04-06T12:11:38;7.68;;;2.40;;
24681;SDS011;12802;53.390;-2.328;2023-04-06T12:14:05;6.43;;;2.85;;
24681;SDS011;12802;53.390;-2.328;2023-04-06T12:16:32;9.65;;;2.53;;
24681;SDS011;12802;53.390;-2.328;2023-04-06T12:18:59;7.78;;;2.85;;
24681;SDS011;12802;53.390;-2.328;2023-04-06T12:21:29;5.15;;;2.60;;
24681;SDS011;12802;53.390;-2.328;2023-04-06T12:23:59;9.52;;;2.70;;
24681;SDS011;12802;53.390;-2.328;2023-04-06T12:26:28;7.00;;;3.30;;
24681;SDS011;12802;53.390;-2.328;2023-04-06T12:28:54;9.23;;;2.97;;
24681;SDS011;12802;53.390;-2.328;2023-04-06T12:31:21;7.45;;;2.50;;
24681;SDS011;12802;53.390;-2.328;2023-04-06T12:33:48;6.03;;;2.17;;
24681;SDS011;12802;53.390;-2.328;2023-04-06T12:36:15;13.15;;;2.50;;
24681;SDS011;12802;53.390;-2.328;2023-04-06T12:38:44;13.68;;;2.63;;
24681;SDS011;12802;53.390;-2.328;2023-04-06T12:41:11;7.82;;;2.55;;
24681;SDS011;12802;53.390;-2.328;2023-04-06T12:43:37;6.82;;;2.63;;
24681;SDS011;12802;53.390;-2.328;2023-04-06T12:46:04;8.40;;;3.20;;
24681;SDS011;12802;53.390;-2.328;2023-04-06T12:48:30;6.05;;;1.73;;
24681;SDS011;12802;53.390;-2.328;2023-04-06T12:51:00;7.65;;;2.42;;
24681;SDS011;12802;53.390;-2.328;2023-04-06T12:53:27;6.70;;;2.03;;
24681;SDS011;12802;53.390;-2.328;2023-04-06T12:55:56;7.05;;;2.45;;
24681;SDS011;12802;53.390;-2.328;2023-04-06T12:58:23;11.23;;;2.42;;
24681;SDS011;12802;53.390;-2.328;2023-04-06T13:00:51;6.67;;;1.87;;
24681;SDS011;12802;53.390;-2.328;2023-04-06T13:03:18;10.10;;;2.40;;
24681;SDS011;12802;53.390;-2.328;2023-04-06T13:05:47;15.30;;;1.98;;
24681;SDS011;12802;53.390;-2.328;2023-04-06T13:08:14;6.35;;;1.92;;
24681;SDS011;12802;53.390;-2.328;2023-04-06T13:10:44;10.45;;;2.45;;
24681;SDS011;12802;53.390;-2.328;2023-04-06T13:13:14;3.95;;;1.90;;
24681;SDS011;12802;53.390;-2.328;2023-04-06T13:15:41;6.60;;;2.30;;
24681;SDS011;12802;53.390;-2.328;2023-04-06T13:18:07;8.05;;;2.28;;
24681;SDS011;12802;53.390;-2.328;2023-04-06T13:20:33;9.38;;;2.35;;
24681;SDS011;12802;53.390;-2.328;2023-04-06T13:23:00;6.25;;;2.20;;
24681;SDS011;12802;53.390;-2.328;2023-04-06T13:25:25;11.23;;;2.35;;
24681;SDS011;12802;53.390;-2.328;2023-04-06T13:27:51;6.88;;;2.20;;
24681;SDS011;12802;53.390;-2.328;2023-04-06T13:30:17;13.80;;;2.50;;
24681;SDS011;12802;53.390;-2.328;2023-04-06T13:32:43;10.13;;;2.42;;
24681;SDS011;12802;53.390;-2.328;2023-04-06T13:35:08;5.88;;;2.15;;
24681;SDS011;12802;53.390;-2.328;2023-04-06T13:37:34;7.82;;;1.88;;
24681;SDS011;12802;53.390;-2.328;2023-04-06T13:40:04;7.00;;;1.90;;
24681;SDS011;12802;53.390;-2.328;2023-04-06T13:42:31;7.97;;;1.73;;
24681;SDS011;12802;53.390;-2.328;2023-04-06T13:44:57;5.68;;;2.13;;
24681;SDS011;12802;53.390;-2.328;2023-04-06T13:47:24;12.73;;;1.95;;
24681;SDS011;12802;53.390;-2.328;2023-04-06T13:49:50;5.53;;;1.73;;
24681;SDS011;12802;53.390;-2.328;2023-04-06T13:52:16;5.07;;;1.65;;
24681;SDS011;12802;53.390;-2.328;2023-04-06T13:54:43;3.83;;;1.58;;
24681;SDS011;12802;53.390;-2.328;2023-04-06T13:57:09;5.90;;;1.63;;
24681;SDS011;12802;53.390;-2.328;2023-04-06T13:59:35;6.05;;;1.67;;
24681;SDS011;12802;53.390;-2.328;2023-04-06T14:02:01;7.05;;;2.00;;
24681;SDS011;12802;53.390;-2.328;2023-04-06T14:04:28;6.13;;;1.63;;
24681;SDS011;12802;53.390;-2.328;2023-04-06T14:06:54;12.05;;;1.75;;
24681;SDS011;12802;53.390;-2.328;2023-04-06T14:09:20;12.20;;;2.20;;
24681;SDS011;12802;53.390;-2.328;2023-04-06T14:11:46;5.07;;;2.03;;
24681;SDS011;12802;53.390;-2.328;2023-04-06T14:14:11;5.45;;;1.70;;
24681;SDS011;12802;53.390;-2.328;2023-04-06T14:16:37;8.27;;;2.35;;
24681;SDS011;12802;53.390;-2.328;2023-04-06T14:19:03;5.13;;;2.17;;
24681;SDS011;12802;53.390;-2.328;2023-04-06T14:21:29;8.68;;;1.85;;
24681;SDS011;12802;53.390;-2.328;2023-04-06T14:23:54;8.02;;;1.92;;
24681;SDS011;12802;53.390;-2.328;2023-04-06T14:26:21;5.25;;;1.98;;
24681;SDS011;12802;53.390;-2.328;2023-04-06T14:28:47;4.03;;;1.60;;
24681;SDS011;12802;53.390;-2.328;2023-04-06T14:31:14;7.05;;;1.92;;
24681;SDS011;12802;53.390;-2.328;2023-04-06T14:33:41;8.68;;;2.20;;
24681;SDS011;12802;53.390;-2.328;2023-04-06T14:36:08;4.70;;;1.60;;